Time,TemperatureF,DewpointF,PressureIn,WindDirection,WindDirectionDegrees,WindSpeedMPH,WindSpeedGustMPH,Humidity,HourlyPrecipIn,Conditions,Clouds,dailyrainin,SoftwareType,DateUTC
2013-01-13 00:00:00,33.9,27.0,30.09,SSW,193,0.0,0.0,76,0.00,,,0.00,weatherlink.com 1.10,2013-01-13 08:00:00,
2013-01-13 00:15:00,33.7,27.0,30.09,SSW,193,0.0,0.0,76,0.00,,,0.00,weatherlink.com 1.10,2013-01-13 08:15:00,
2013-01-13 00:30:00,33.7,27.0,30.08,SSW,193,0.0,0.0,75,0.00,,,0.00,weatherlink.com 1.10,2013-01-13 08:30:00,
2013-01-13 00:45:00,33.4,27.0,30.08,SSW,193,0.0,0.0,76,0.00,,,0.00,weatherlink.com 1.10,2013-01-13 08:45:00,
2013-01-13 01:00:00,33.4,27.0,30.09,SSW,193,0.0,0.0,77,0.00,,,0.00,weatherlink.com 1.10,2013-01-13 09:00:00,
2013-01-13 01:15:00,33.9,27.0,30.09,NW,315,0.0,0.0,77,0.00,,,0.00,weatherlink.com 1.10,2013-01-13 09:15:00,
2013-01-13 01:30:00,34.3,27.0,30.10,NW,315,0.0,0.0,75,0.00,,,0.00,weatherlink.com 1.10,2013-01-13 09:30:00,
2013-01-13 01:45:00,34.7,28.0,30.10,NW,315,0.0,0.0,75,0.00,,,0.00,weatherlink.com 1.10,2013-01-13 09:45:00,
2013-01-13 02:00:00,35.1,27.0,30.10,NW,315,0.0,0.0,73,0.00,,,0.00,weatherlink.com 1.10,2013-01-13 10:00:00,
2013-01-13 02:15:00,35.2,27.0,30.10,NW,315,0.0,0.0,73,0.00,,,0.00,weatherlink.com 1.10,2013-01-13 10:15:00,
2013-01-13 02:30:00,35.3,27.0,30.10,NW,315,0.0,0.0,72,0.00,,,0.00,weatherlink.com 1.10,2013-01-13 10:30:00,
2013-01-13 02:45:00,35.1,28.0,30.10,NW,315,0.0,0.0,74,0.00,,,0.00,weatherlink.com 1.10,2013-01-13 10:45:00,
2013-01-13 03:00:00,34.8,27.0,30.11,NW,315,0.0,2.0,73,0.00,,,0.00,weatherlink.com 1.10,2013-01-13 11:00:00,
2013-01-13 03:15:00,34.8,27.0,30.11,NW,315,0.0,0.0,74,0.00,,,0.00,weatherlink.com 1.10,2013-01-13 11:15:00,
2013-01-13 03:30:00,34.9,27.0,30.11,NW,315,0.0,3.0,73,0.00,,,0.00,weatherlink.com 1.10,2013-01-13 11:30:00,
2013-01-13 03:45:00,35.5,26.0,30.11,NW,321,0.0,2.0,68,0.00,,,0.00,weatherlink.com 1.10,2013-01-13 11:45:00,
2013-01-13 04:00:00,36.2,25.0,30.10,NW,321,0.0,3.0,64,0.00,,,0.00,weatherlink.com 1.10,2013-01-13 12:00:00,
2013-01-13 04:15:00,36.5,24.0,30.11,NW,321,0.0,0.0,61,0.00,,,0.00,weatherlink.com 1.10,2013-01-13 12:15:00,
2013-01-13 04:30:00,36.5,23.0,30.11,NW,321,0.0,2.0,59,0.00,,,0.00,weatherlink.com 1.10,2013-01-13 12:30:00,
2013-01-13 04:45:00,37.0,23.0,30.10,NE,44,0.0,3.0,57,0.00,,,0.00,weatherlink.com 1.10,2013-01-13 12:45:00,
2013-01-13 05:00:00,37.6,23.0,30.11,NE,44,0.0,0.0,55,0.00,,,0.00,weatherlink.com 1.10,2013-01-13 13:00:00,
2013-01-13 05:15:00,37.5,23.0,30.11,NE,38,0.0,2.0,55,0.00,,,0.00,weatherlink.com 1.10,2013-01-13 13:15:00,
2013-01-13 05:30:00,37.7,22.0,30.11,NE,36,0.0,1.0,53,0.00,,,0.00,weatherlink.com 1.10,2013-01-13 13:30:00,
2013-01-13 05:45:00,37.3,22.0,30.12,NNE,20,2.0,3.0,54,0.00,,,0.00,weatherlink.com 1.10,2013-01-13 13:45:00,
2013-01-13 06:01:00,37.0,22.0,30.12,NNE,19,0.0,2.0,55,0.00,,,0.00,weatherlink.com 1.10,2013-01-13 14:01:00,
2013-01-13 06:16:00,36.4,23.0,30.12,NNE,13,0.0,2.0,58,0.00,,,0.00,weatherlink.com 1.10,2013-01-13 14:16:00,
2013-01-13 06:31:00,35.6,23.0,30.13,NNE,13,0.0,0.0,60,0.00,,,0.00,weatherlink.com 1.10,2013-01-13 14:31:00,
2013-01-13 06:46:00,35.4,22.0,30.13,NNE,13,0.0,0.0,59,0.00,,,0.00,weatherlink.com 1.10,2013-01-13 14:46:00,
2013-01-13 07:01:00,35.5,21.0,30.13,NNE,13,0.0,2.0,57,0.00,,,0.00,weatherlink.com 1.10,2013-01-13 15:01:00,
2013-01-13 07:16:00,35.7,22.0,30.14,NNW,339,0.0,5.0,57,0.00,,,0.00,weatherlink.com 1.10,2013-01-13 15:16:00,
2013-01-13 07:31:00,34.8,23.0,30.15,NNW,339,0.0,0.0,63,0.00,,,0.00,weatherlink.com 1.10,2013-01-13 15:31:00,
2013-01-13 07:46:00,34.5,25.0,30.15,NNE,26,0.0,2.0,67,0.00,,,0.00,weatherlink.com 1.10,2013-01-13 15:46:00,
2013-01-13 08:01:00,37.1,23.0,30.16,NNE,26,0.0,0.0,56,0.00,,,0.00,weatherlink.com 1.10,2013-01-13 16:01:00,
2013-01-13 08:16:00,40.8,22.0,30.16,NE,36,0.0,4.0,48,0.00,,,0.00,weatherlink.com 1.10,2013-01-13 16:16:00,
2013-01-13 08:31:00,43.3,23.0,30.17,North,355,0.0,4.0,44,0.00,,,0.00,weatherlink.com 1.10,2013-01-13 16:31:00,
2013-01-13 08:46:00,44.2,22.0,30.17,NE,46,0.0,5.0,42,0.00,,,0.00,weatherlink.com 1.10,2013-01-13 16:46:00,
2013-01-13 09:01:00,44.5,20.0,30.17,NNE,29,0.0,8.0,38,0.00,,,0.00,weatherlink.com 1.10,2013-01-13 17:01:00,
2013-01-13 09:16:00,46.1,20.0,30.16,NE,55,3.0,8.0,35,0.00,,,0.00,weatherlink.com 1.10,2013-01-13 17:16:00,
2013-01-13 09:31:00,46.9,19.0,30.16,ESE,107,2.0,8.0,33,0.00,,,0.00,weatherlink.com 1.10,2013-01-13 17:31:00,
2013-01-13 09:46:00,48.1,19.0,30.17,NE,46,3.0,6.0,32,0.00,,,0.00,weatherlink.com 1.10,2013-01-13 17:46:00,
2013-01-13 10:01:00,48.7,19.0,30.17,ENE,65,5.0,8.0,31,0.00,,,0.00,weatherlink.com 1.10,2013-01-13 18:01:00,
2013-01-13 10:16:00,49.8,18.0,30.16,East,83,6.0,6.0,28,0.00,,,0.00,weatherlink.com 1.10,2013-01-13 18:16:00,
2013-01-13 10:31:00,50.7,18.0,30.15,NE,35,2.0,7.0,27,0.00,,,0.00,weatherlink.com 1.10,2013-01-13 18:31:00,
2013-01-13 10:46:00,51.1,18.0,30.14,ESE,108,3.0,6.0,27,0.00,,,0.00,weatherlink.com 1.10,2013-01-13 18:46:00,
2013-01-13 11:02:00,52.1,19.0,30.13,East,80,0.0,5.0,27,0.00,,,0.00,weatherlink.com 1.10,2013-01-13 19:02:00,
2013-01-13 11:16:00,52.3,19.0,30.12,NE,54,0.0,5.0,27,0.00,,,0.00,weatherlink.com 1.10,2013-01-13 19:16:00,
2013-01-13 11:32:00,53.6,19.0,30.11,SE,144,0.0,3.0,26,0.00,,,0.00,weatherlink.com 1.10,2013-01-13 19:32:00,
2013-01-13 11:47:00,54.7,20.0,30.10,SSW,209,0.0,1.0,26,0.00,,,0.00,weatherlink.com 1.10,2013-01-13 19:47:00,
2013-01-13 12:02:00,55.3,20.0,30.08,West,271,0.0,6.0,25,0.00,,,0.00,weatherlink.com 1.10,2013-01-13 20:02:00,
2013-01-13 12:17:00,56.1,21.0,30.07,West,266,3.0,8.0,25,0.00,,,0.00,weatherlink.com 1.10,2013-01-13 20:17:00,
2013-01-13 12:32:00,55.6,20.0,30.07,NW,318,3.0,8.0,25,0.00,,,0.00,weatherlink.com 1.10,2013-01-13 20:32:00,
2013-01-13 12:47:00,55.9,20.0,30.07,SW,227,2.0,8.0,25,0.00,,,0.00,weatherlink.com 1.10,2013-01-13 20:47:00,
2013-01-13 13:02:00,55.3,22.0,30.06,WSW,257,0.0,8.0,27,0.00,,,0.00,weatherlink.com 1.10,2013-01-13 21:02:00,
2013-01-13 13:17:00,55.2,22.0,30.06,South,180,6.0,12.0,28,0.00,,,0.00,weatherlink.com 1.10,2013-01-13 21:17:00,
2013-01-13 13:32:00,54.5,22.0,30.06,NW,323,3.0,10.0,28,0.00,,,0.00,weatherlink.com 1.10,2013-01-13 21:32:00,
2013-01-13 13:47:00,55.5,23.0,30.06,SSE,167,6.0,7.0,28,0.00,,,0.00,weatherlink.com 1.10,2013-01-13 21:47:00,
2013-01-13 14:02:00,54.9,22.0,30.06,SW,227,1.0,9.0,28,0.00,,,0.00,weatherlink.com 1.10,2013-01-13 22:02:00,
2013-01-13 14:17:00,53.7,23.0,30.06,SSW,207,3.0,8.0,30,0.00,,,0.00,weatherlink.com 1.10,2013-01-13 22:17:00,
2013-01-13 14:32:00,53.6,23.0,30.06,SE,132,3.0,9.0,30,0.00,,,0.00,weatherlink.com 1.10,2013-01-13 22:32:00,
2013-01-13 14:48:00,53.9,23.0,30.06,SSE,167,0.0,8.0,30,0.00,,,0.00,weatherlink.com 1.10,2013-01-13 22:48:00,
2013-01-13 15:17:00,54.0,25.0,30.06,West,277,7.0,9.0,32,0.00,,,0.00,weatherlink.com 1.10,2013-01-13 23:17:00,
2013-01-13 15:32:00,52.2,26.0,30.06,West,273,0.0,10.0,36,0.00,,,0.00,weatherlink.com 1.10,2013-01-13 23:32:00,
2013-01-13 15:47:00,51.7,25.0,30.06,SW,215,4.0,6.0,36,0.00,,,0.00,weatherlink.com 1.10,2013-01-13 23:47:00,
2013-01-13 16:02:00,49.9,27.0,30.06,SW,230,0.0,5.0,41,0.00,,,0.00,weatherlink.com 1.10,2013-01-14 00:02:00,
2013-01-13 16:17:00,49.0,28.0,30.06,SSW,194,0.0,4.0,45,0.00,,,0.00,weatherlink.com 1.10,2013-01-14 00:17:00,
2013-01-13 16:32:00,48.3,29.0,30.06,South,183,0.0,8.0,48,0.00,,,0.00,weatherlink.com 1.10,2013-01-14 00:32:00,
2013-01-13 16:47:00,47.7,30.0,30.05,SSW,205,0.0,8.0,50,0.00,,,0.00,weatherlink.com 1.10,2013-01-14 00:47:00,
2013-01-13 17:02:00,47.0,30.0,30.05,SSE,163,0.0,4.0,51,0.00,,,0.00,weatherlink.com 1.10,2013-01-14 01:02:00,
2013-01-13 17:17:00,46.3,29.0,30.05,South,188,0.0,0.0,52,0.00,,,0.00,weatherlink.com 1.10,2013-01-14 01:17:00,
2013-01-13 17:32:00,45.4,29.0,30.05,South,189,0.0,0.0,54,0.00,,,0.00,weatherlink.com 1.10,2013-01-14 01:32:00,
2013-01-13 17:47:00,44.5,29.0,30.05,South,188,0.0,0.0,56,0.00,,,0.00,weatherlink.com 1.10,2013-01-14 01:47:00,
2013-01-13 18:02:00,43.8,30.0,30.05,South,189,0.0,1.0,59,0.00,,,0.00,weatherlink.com 1.10,2013-01-14 02:02:00,
2013-01-13 18:17:00,42.6,30.0,30.05,South,189,0.0,0.0,62,0.00,,,0.00,weatherlink.com 1.10,2013-01-14 02:17:00,
2013-01-13 18:32:00,41.9,30.0,30.06,South,189,0.0,0.0,64,0.00,,,0.00,weatherlink.com 1.10,2013-01-14 02:32:00,
2013-01-13 19:02:00,41.8,30.0,30.07,South,189,0.0,0.0,64,0.00,,,0.00,weatherlink.com 1.10,2013-01-14 03:02:00,
2013-01-13 19:16:00,40.7,30.0,30.06,South,189,0.0,0.0,66,0.00,,,0.00,weatherlink.com 1.10,2013-01-14 03:16:00,
2013-01-13 19:31:00,39.5,30.0,30.07,South,189,0.0,0.0,68,0.00,,,0.00,weatherlink.com 1.10,2013-01-14 03:31:00,
2013-01-13 19:46:00,38.7,30.0,30.07,South,189,0.0,0.0,71,0.00,,,0.00,weatherlink.com 1.10,2013-01-14 03:46:00,
2013-01-13 20:01:00,38.4,30.0,30.07,South,189,0.0,0.0,72,0.00,,,0.00,weatherlink.com 1.10,2013-01-14 04:01:00,
2013-01-13 20:16:00,38.7,30.0,30.08,South,189,0.0,0.0,71,0.00,,,0.00,weatherlink.com 1.10,2013-01-14 04:16:00,
2013-01-13 20:31:00,39.1,30.0,30.08,NNE,33,0.0,1.0,70,0.00,,,0.00,weatherlink.com 1.10,2013-01-14 04:31:00,
2013-01-13 20:46:00,39.4,29.0,30.09,NE,46,1.0,2.0,67,0.00,,,0.00,weatherlink.com 1.10,2013-01-14 04:46:00,
2013-01-13 21:31:00,40.5,25.0,30.10,ENE,57,0.0,3.0,55,0.00,,,0.00,weatherlink.com 1.10,2013-01-14 05:31:00,
2013-01-13 21:46:00,39.8,24.0,30.11,ENE,57,0.0,0.0,54,0.00,,,0.00,weatherlink.com 1.10,2013-01-14 05:46:00,
2013-01-13 22:01:00,39.4,22.0,30.11,NE,54,0.0,4.0,51,0.00,,,0.00,weatherlink.com 1.10,2013-01-14 06:01:00,
2013-01-13 22:16:00,40.5,20.0,30.12,NNE,17,3.0,11.0,44,0.00,,,0.00,weatherlink.com 1.10,2013-01-14 06:16:00,
2013-01-13 22:31:00,41.5,19.0,30.12,NNE,33,6.0,9.0,41,0.00,,,0.00,weatherlink.com 1.10,2013-01-14 06:31:00,
2013-01-13 22:46:00,41.6,18.0,30.13,North,11,0.0,9.0,39,0.00,,,0.00,weatherlink.com 1.10,2013-01-14 06:46:00,
2013-01-13 23:01:00,41.5,17.0,30.13,ENE,70,0.0,10.0,37,0.00,,,0.00,weatherlink.com 1.10,2013-01-14 07:01:00,
2013-01-13 23:17:00,40.7,17.0,30.14,ENE,78,0.0,5.0,38,0.00,,,0.00,weatherlink.com 1.10,2013-01-14 07:17:00,
2013-01-13 23:31:00,40.4,16.0,30.14,ENE,75,2.0,7.0,37,0.00,,,0.00,weatherlink.com 1.10,2013-01-14 07:31:00,
2013-01-13 23:46:00,40.6,13.0,30.15,NNE,27,0.0,10.0,33,0.00,,,0.00,weatherlink.com 1.10,2013-01-14 07:46:00,